Time;durP1;ratioP1;P1;durP2;ratioP2;P2;SDS_P1;SDS_P2;PMS_P1;PMS_P2;Temp;Humidity;BMP_temperature;BMP_pressure;BME280_temperature;BME280_humidity;BME280_pressure;Samples;Min_cycle;Max_cycle;Signal;HPM_P1;HPM_P2
2023/07/29 00:04:13;;;;;;;;;;;19.10;99.90;;;;;;12505159;28;19920;-42
2023/07/29 00:10:15;;;;;;;;;;;19.10;99.90;;;;;;12514152;28;19925;-43
2023/07/29 00:16:18;;;;;;;;;;;19.10;99.90;;;;;;12517043;28;19932;-43
2023/07/29 00:22:21;;;;;;;;;;;19.10;99.90;;;;;;12524339;28;19920;-43
2023/07/29 00:28:23;;;;;;;;;;;19.10;99.90;;;;;;12509894;28;19925;-43
2023/07/29 00:34:25;;;;;;;;;;;19.20;99.90;;;;;;12507058;28;20381;-43
2023/07/29 00:40:28;;;;;;;;;;;19.10;99.90;;;;;;12530528;28;19931;-45
2023/07/29 00:46:34;;;;;;;;;;;19.20;99.90;;;;;;12530581;28;19921;-43
2023/07/29 00:52:38;;;;;;;;;;;19.10;99.90;;;;;;12514326;28;19920;-42
2023/07/29 00:58:41;;;;;;;;;;;19.00;99.90;;;;;;12527021;28;19925;-43
2023/07/29 01:04:43;;;;;;;;;;;19.00;99.90;;;;;;12526695;28;19920;-43
2023/07/29 01:10:49;;;;;;;;;;;19.00;99.90;;;;;;12510845;28;19962;-43
2023/07/29 01:16:53;;;;;;;;;;;19.00;99.90;;;;;;12518717;28;19932;-43
2023/07/29 01:22:56;;;;;;;;;;;19.00;99.90;;;;;;12523176;28;19935;-43
2023/07/29 01:28:59;;;;;;;;;;;19.10;99.90;;;;;;12495115;28;19956;-43
2023/07/29 01:35:14;;;;;;;;;;;19.10;99.90;;;;;;12528658;28;19925;-43
2023/07/29 01:41:16;;;;;;;;;;;19.10;99.90;;;;;;12516977;28;20411;-43
2023/07/29 01:47:19;;;;;;;;;;;19.00;99.90;;;;;;12517856;28;19929;-43
2023/07/29 01:53:22;;;;;;;;;;;19.00;99.90;;;;;;12547408;28;19928;-42
2023/07/29 01:59:24;;;;;;;;;;;19.00;99.90;;;;;;12494361;28;19967;-43
2023/07/29 02:05:26;;;;;;;;;;;19.00;99.90;;;;;;12531731;28;19924;-42
2023/07/29 02:11:29;;;;;;;;;;;19.00;99.90;;;;;;12541626;28;20019;-44
2023/07/29 02:17:32;;;;;;;;;;;19.00;99.90;;;;;;12520473;28;19921;-43
2023/07/29 02:23:35;;;;;;;;;;;19.00;99.90;;;;;;12513588;28;20366;-43
2023/07/29 02:29:39;;;;;;;;;;;18.90;99.90;;;;;;12524839;28;19925;-43
2023/07/29 02:35:44;;;;;;;;;;;18.90;99.90;;;;;;12521444;28;19921;-43
2023/07/29 02:41:47;;;;;;;;;;;18.90;99.90;;;;;;12534269;28;19932;-43
2023/07/29 02:47:49;;;;;;;;;;;18.90;99.90;;;;;;12526463;28;20043;-43
2023/07/29 02:53:52;;;;;;;;;;;18.80;99.90;;;;;;12518949;28;19921;-43
2023/07/29 02:59:55;;;;;;;;;;;18.80;99.90;;;;;;12493032;28;19924;-43
2023/07/29 03:06:05;;;;;;;;;;;18.80;99.90;;;;;;12517708;28;19928;-43
2023/07/29 03:12:08;;;;;;;;;;;18.80;99.90;;;;;;12509944;28;19924;-43
2023/07/29 03:18:11;;;;;;;;;;;18.70;99.90;;;;;;12504840;28;19925;-43
2023/07/29 03:24:13;;;;;;;;;;;18.70;99.90;;;;;;12521007;28;19925;-43
2023/07/29 03:30:19;;;;;;;;;;;18.70;99.90;;;;;;12500723;28;19927;-43
2023/07/29 03:36:21;;;;;;;;;;;18.60;99.90;;;;;;12501728;28;20055;-43
2023/07/29 03:42:24;;;;;;;;;;;18.70;99.90;;;;;;12509907;28;19928;-43
2023/07/29 03:48:26;;;;;;;;;;;18.70;99.90;;;;;;12515880;28;19963;-43
2023/07/29 03:54:29;;;;;;;;;;;18.70;99.90;;;;;;12515054;28;19974;-43
2023/07/29 04:00:31;;;;;;;;;;;18.60;99.90;;;;;;12508988;28;20023;-43
2023/07/29 04:06:34;;;;;;;;;;;18.50;99.90;;;;;;12499065;28;19951;-44
2023/07/29 04:12:38;;;;;;;;;;;18.60;99.90;;;;;;12520722;28;19920;-43
2023/07/29 04:18:41;;;;;;;;;;;18.60;99.90;;;;;;12517310;28;20038;-43
2023/07/29 04:24:43;;;;;;;;;;;18.60;99.90;;;;;;12501568;28;19925;-43
2023/07/29 04:30:45;;;;;;;;;;;18.60;99.90;;;;;;12489049;28;19927;-43
2023/07/29 04:36:48;;;;;;;;;;;18.60;99.90;;;;;;12531089;28;20281;-43
2023/07/29 04:42:51;;;;;;;;;;;18.60;99.90;;;;;;12522780;28;19990;-43
2023/07/29 04:48:53;;;;;;;;;;;18.60;99.90;;;;;;12514625;28;19928;-43
2023/07/29 04:54:56;;;;;;;;;;;18.70;99.90;;;;;;12511708;28;19921;-43
2023/07/29 05:00:59;;;;;;;;;;;18.70;99.90;;;;;;12500486;28;19928;-43
2023/07/29 05:07:02;;;;;;;;;;;18.80;99.90;;;;;;12506738;28;19928;-43
2023/07/29 05:13:04;;;;;;;;;;;18.80;99.90;;;;;;12518684;28;19927;-43
2023/07/29 05:19:09;;;;;;;;;;;18.70;99.90;;;;;;12522101;28;19928;-43
2023/07/29 05:25:11;;;;;;;;;;;18.80;99.90;;;;;;12485393;28;19928;-43
2023/07/29 05:31:14;;;;;;;;;;;18.80;99.90;;;;;;12502147;28;20346;-43
2023/07/29 05:37:17;;;;;;;;;;;18.90;99.90;;;;;;12515795;28;19928;-43
2023/07/29 05:43:20;;;;;;;;;;;19.00;99.90;;;;;;12514278;28;19928;-43
2023/07/29 05:49:23;;;;;;;;;;;19.00;99.90;;;;;;12500397;28;20011;-43
2023/07/29 05:55:26;;;;;;;;;;;19.10;99.90;;;;;;12505878;28;20008;-42
2023/07/29 06:01:28;;;;;;;;;;;19.20;99.90;;;;;;12496447;28;19928;-44
2023/07/29 06:07:33;;;;;;;;;;;19.20;99.90;;;;;;12505300;28;19984;-43
2023/07/29 06:13:36;;;;;;;;;;;19.20;99.90;;;;;;12503487;28;19928;-43
2023/07/29 06:19:39;;;;;;;;;;;19.20;99.90;;;;;;12502416;28;19921;-43
2023/07/29 06:25:41;;;;;;;;;;;19.30;99.90;;;;;;12502497;28;19921;-43
2023/07/29 06:31:43;;;;;;;;;;;19.40;99.90;;;;;;12511044;28;19921;-43
2023/07/29 06:37:45;;;;;;;;;;;19.40;99.90;;;;;;12507719;28;20171;-43
2023/07/29 06:43:50;;;;;;;;;;;19.40;99.90;;;;;;12524845;28;20491;-43
2023/07/29 06:49:56;;;;;;;;;;;19.40;99.90;;;;;;12516708;28;19965;-43
2023/07/29 06:55:59;;;;;;;;;;;19.40;99.90;;;;;;12508650;28;20256;-43
2023/07/29 07:02:02;;;;;;;;;;;19.50;99.90;;;;;;12506171;28;19921;-44
2023/07/29 07:08:05;;;;;;;;;;;19.60;99.90;;;;;;12503560;28;19928;-43
2023/07/29 07:14:08;;;;;;;;;;;19.80;99.90;;;;;;12515460;28;20020;-43
2023/07/29 07:20:11;;;;;;;;;;;19.70;99.90;;;;;;12508687;28;19928;-44
2023/07/29 07:26:15;;;;;;;;;;;19.90;99.90;;;;;;12503066;28;19932;-43
2023/07/29 07:32:19;;;;;;;;;;;19.80;99.90;;;;;;12499816;28;20325;-43
2023/07/29 07:38:21;;;;;;;;;;;19.70;99.90;;;;;;12520809;28;20428;-44
2023/07/29 07:44:26;;;;;;;;;;;19.70;99.90;;;;;;12521858;28;20293;-43
2023/07/29 07:50:30;;;;;;;;;;;19.80;99.90;;;;;;12505191;28;19928;-43
2023/07/29 07:56:33;;;;;;;;;;;19.90;99.90;;;;;;12506924;28;19956;-44
2023/07/29 08:02:36;;;;;;;;;;;19.90;99.90;;;;;;12521465;28;19921;-43
2023/07/29 08:08:40;;;;;;;;;;;19.80;99.90;;;;;;12504310;28;19925;-43
2023/07/29 08:14:42;;;;;;;;;;;19.80;99.90;;;;;;12509132;28;19921;-43
2023/07/29 08:20:55;;;;;;;;;;;20.00;99.90;;;;;;12521302;28;19925;-44
2023/07/29 08:26:57;;;;;;;;;;;20.10;99.90;;;;;;12509905;28;20285;-43
2023/07/29 08:32:59;;;;;;;;;;;20.20;99.90;;;;;;12500394;28;19925;-43
2023/07/29 08:39:03;;;;;;;;;;;20.20;99.90;;;;;;12514299;28;19932;-44
2023/07/29 08:45:07;;;;;;;;;;;20.30;99.90;;;;;;12515317;28;19924;-43
2023/07/29 08:51:11;;;;;;;;;;;20.30;99.90;;;;;;12503549;28;20359;-43
2023/07/29 08:57:16;;;;;;;;;;;20.30;99.90;;;;;;12516718;28;19928;-43
2023/07/29 09:03:20;;;;;;;;;;;20.20;99.90;;;;;;12488626;28;19972;-43
2023/07/29 09:09:23;;;;;;;;;;;20.30;99.90;;;;;;12509585;28;20358;-44
2023/07/29 09:15:28;;;;;;;;;;;20.50;99.90;;;;;;12493640;28;19927;-43
2023/07/29 09:21:31;;;;;;;;;;;20.60;99.90;;;;;;12501471;28;19925;-44
2023/07/29 09:27:38;;;;;;;;;;;21.40;99.90;;;;;;12497906;28;19924;-44
2023/07/29 09:33:41;;;;;;;;;;;21.80;99.90;;;;;;12491404;28;19921;-43
2023/07/29 09:39:45;;;;;;;;;;;21.50;99.90;;;;;;12508636;28;20016;-43
2023/07/29 09:45:48;;;;;;;;;;;21.80;99.90;;;;;;12514044;28;20608;-43
2023/07/29 09:51:51;;;;;;;;;;;21.40;99.90;;;;;;12517749;28;19920;-43
2023/07/29 09:57:53;;;;;;;;;;;21.60;99.90;;;;;;12503282;28;19928;-43
2023/07/29 10:03:57;;;;;;;;;;;22.10;99.90;;;;;;12498842;28;19928;-43
2023/07/29 10:09:59;;;;;;;;;;;21.80;99.90;;;;;;12507918;28;19932;-44
2023/07/29 10:16:02;;;;;;;;;;;22.20;99.90;;;;;;12518810;28;20023;-43
2023/07/29 10:22:06;;;;;;;;;;;22.20;99.90;;;;;;12507963;28;19956;-43
2023/07/29 10:28:11;;;;;;;;;;;22.00;99.90;;;;;;12528221;28;19963;-43
2023/07/29 10:34:17;;;;;;;;;;;22.40;99.90;;;;;;12498862;28;20414;-43
2023/07/29 10:40:20;;;;;;;;;;;21.90;99.90;;;;;;12530605;28;19927;-45
2023/07/29 10:46:23;;;;;;;;;;;22.40;99.90;;;;;;12524406;28;19932;-45
2023/07/29 10:52:30;;;;;;;;;;;22.90;99.90;;;;;;12519906;28;19928;-45
2023/07/29 10:58:34;;;;;;;;;;;23.30;99.90;;;;;;12511153;28;20387;-45
2023/07/29 11:04:46;;;;;;;;;;;22.40;99.90;;;;;;12496645;28;19932;-45
2023/07/29 11:11:05;;;;;;;;;;;22.40;99.90;;;;;;12520241;28;20397;-45
2023/07/29 11:17:07;;;;;;;;;;;22.70;99.90;;;;;;12520306;28;19928;-45
2023/07/29 11:23:13;;;;;;;;;;;22.60;99.90;;;;;;12516154;28;20404;-45
2023/07/29 11:29:16;;;;;;;;;;;22.90;99.90;;;;;;12513802;28;19928;-45
2023/07/29 11:35:18;;;;;;;;;;;23.30;99.90;;;;;;12497720;28;19921;-45
2023/07/29 11:41:22;;;;;;;;;;;23.00;99.90;;;;;;12516730;28;19925;-45
2023/07/29 11:47:27;;;;;;;;;;;23.00;99.90;;;;;;12521316;28;19921;-45
2023/07/29 11:53:30;;;;;;;;;;;22.80;99.90;;;;;;12536799;28;20305;-45
2023/07/29 11:59:36;;;;;;;;;;;23.50;99.90;;;;;;12519266;28;19970;-45
2023/07/29 12:05:40;;;;;;;;;;;23.40;99.90;;;;;;12517733;28;19924;-45
2023/07/29 12:11:44;;;;;;;;;;;23.00;99.90;;;;;;12498416;28;19972;-45
2023/07/29 12:17:46;;;;;;;;;;;23.20;99.90;;;;;;12514835;28;20292;-44
2023/07/29 12:23:50;;;;;;;;;;;22.90;99.90;;;;;;12505008;28;19943;-45
2023/07/29 12:29:53;;;;;;;;;;;23.20;99.90;;;;;;12502738;28;19920;-45
2023/07/29 12:35:56;;;;;;;;;;;23.40;99.90;;;;;;12489171;28;19925;-45
2023/07/29 12:42:00;;;;;;;;;;;23.40;99.90;;;;;;12487821;28;19921;-45
2023/07/29 12:48:03;;;;;;;;;;;22.70;99.90;;;;;;12520515;28;19933;-45
2023/07/29 12:54:08;;;;;;;;;;;22.60;99.90;;;;;;12520105;28;19931;-45
2023/07/29 13:00:11;;;;;;;;;;;22.60;99.90;;;;;;12496524;28;19982;-45
2023/07/29 13:06:13;;;;;;;;;;;22.70;99.90;;;;;;12508564;28;19921;-47
2023/07/29 13:12:15;;;;;;;;;;;23.10;99.90;;;;;;12492096;28;19928;-45
2023/07/29 13:18:17;;;;;;;;;;;23.60;99.90;;;;;;12498535;28;19932;-45
2023/07/29 13:24:19;;;;;;;;;;;23.40;99.90;;;;;;12498628;28;20003;-45
2023/07/29 13:30:22;;;;;;;;;;;22.80;99.90;;;;;;12493383;28;19932;-45
2023/07/29 13:36:24;;;;;;;;;;;22.80;99.90;;;;;;12495283;28;19921;-45
2023/07/29 13:42:27;;;;;;;;;;;22.70;99.90;;;;;;12529427;28;19928;-45
2023/07/29 13:48:30;;;;;;;;;;;22.70;99.90;;;;;;12519836;28;19955;-45
2023/07/29 13:54:32;;;;;;;;;;;22.70;99.90;;;;;;12516760;28;19960;-45
2023/07/29 14:00:35;;;;;;;;;;;22.60;99.90;;;;;;12515785;28;21116;-45
2023/07/29 14:06:37;;;;;;;;;;;22.70;99.90;;;;;;12527560;28;19971;-45
2023/07/29 14:12:43;;;;;;;;;;;22.50;99.90;;;;;;12493974;28;19920;-45
2023/07/29 14:18:46;;;;;;;;;;;22.80;99.90;;;;;;12523239;28;20015;-45
2023/07/29 14:24:48;;;;;;;;;;;22.90;99.90;;;;;;12509585;28;19952;-45
2023/07/29 14:30:50;;;;;;;;;;;23.30;99.90;;;;;;12499562;28;19956;-45
2023/07/29 14:36:52;;;;;;;;;;;23.50;99.90;;;;;;12497952;28;20047;-45
2023/07/29 14:42:56;;;;;;;;;;;23.70;99.90;;;;;;12506588;28;19924;-45
2023/07/29 14:48:58;;;;;;;;;;;24.10;99.90;;;;;;12512943;28;20743;-44
2023/07/29 14:55:01;;;;;;;;;;;23.90;99.90;;;;;;12526287;28;19955;-45
2023/07/29 15:01:04;;;;;;;;;;;23.10;99.90;;;;;;12485409;28;19925;-45
2023/07/29 15:07:06;;;;;;;;;;;22.60;99.90;;;;;;12501329;28;19946;-45
2023/07/29 15:13:10;;;;;;;;;;;22.40;99.90;;;;;;12495662;28;20016;-45
2023/07/29 15:19:13;;;;;;;;;;;22.30;99.90;;;;;;12507623;28;19920;-45
2023/07/29 15:25:19;;;;;;;;;;;22.20;99.90;;;;;;12500453;28;20340;-45
2023/07/29 15:31:22;;;;;;;;;;;22.00;99.90;;;;;;12486105;28;19921;-45
2023/07/29 15:37:27;;;;;;;;;;;21.90;99.90;;;;;;12515824;28;20344;-45
2023/07/29 15:43:30;;;;;;;;;;;21.40;99.90;;;;;;12499642;28;19975;-45
2023/07/29 15:49:33;;;;;;;;;;;20.00;99.90;;;;;;12507729;28;19925;-45
2023/07/29 15:55:35;;;;;;;;;;;19.70;99.90;;;;;;12515932;28;19979;-45
2023/07/29 16:01:39;;;;;;;;;;;20.00;99.90;;;;;;12512121;28;19928;-45
2023/07/29 16:07:42;;;;;;;;;;;20.50;99.90;;;;;;12497131;28;19943;-45
2023/07/29 16:13:45;;;;;;;;;;;20.70;99.90;;;;;;12521117;28;20008;-45
2023/07/29 16:19:54;;;;;;;;;;;20.70;99.90;;;;;;12515534;28;19953;-45
2023/07/29 16:25:57;;;;;;;;;;;20.80;99.90;;;;;;12493704;28;19932;-45
2023/07/29 16:31:59;;;;;;;;;;;20.50;99.90;;;;;;12509838;28;19928;-45
2023/07/29 16:38:02;;;;;;;;;;;20.40;99.90;;;;;;12501351;28;19932;-44
2023/07/29 16:44:05;;;;;;;;;;;20.60;99.90;;;;;;12515185;28;19925;-45
2023/07/29 16:50:08;;;;;;;;;;;20.80;99.90;;;;;;12518606;28;19921;-45
2023/07/29 16:56:12;;;;;;;;;;;20.90;99.90;;;;;;12509825;28;19927;-44
2023/07/29 17:02:15;;;;;;;;;;;21.10;99.90;;;;;;12504900;28;19976;-45
2023/07/29 17:08:17;;;;;;;;;;;21.30;99.90;;;;;;12498581;28;19960;-44
2023/07/29 17:14:22;;;;;;;;;;;21.60;99.90;;;;;;12513454;28;19925;-45
2023/07/29 17:20:24;;;;;;;;;;;21.40;99.90;;;;;;12514675;28;19928;-45
2023/07/29 17:26:27;;;;;;;;;;;21.40;99.90;;;;;;12513569;28;19925;-44
2023/07/29 17:32:29;;;;;;;;;;;21.90;99.90;;;;;;12519189;28;20385;-45
2023/07/29 17:38:31;;;;;;;;;;;21.90;99.90;;;;;;12498430;28;19928;-45
2023/07/29 17:44:36;;;;;;;;;;;22.10;99.90;;;;;;12520281;28;19943;-45
2023/07/29 17:50:41;;;;;;;;;;;22.40;99.90;;;;;;12520035;28;20023;-45
2023/07/29 17:56:43;;;;;;;;;;;22.70;99.90;;;;;;12517501;28;20365;-45
2023/07/29 18:02:48;;;;;;;;;;;22.50;99.90;;;;;;12522889;28;19921;-45
2023/07/29 18:08:52;;;;;;;;;;;22.40;99.90;;;;;;12496434;28;20016;-45
2023/07/29 18:14:54;;;;;;;;;;;22.10;99.90;;;;;;12506251;28;19929;-44
2023/07/29 18:20:57;;;;;;;;;;;21.20;99.90;;;;;;12503161;28;19925;-44
2023/07/29 18:26:59;;;;;;;;;;;20.60;99.90;;;;;;12510417;28;19964;-44
2023/07/29 18:33:03;;;;;;;;;;;20.20;99.90;;;;;;12520388;28;19924;-44
2023/07/29 18:39:07;;;;;;;;;;;19.80;99.90;;;;;;12501140;28;19964;-44
2023/07/29 18:45:11;;;;;;;;;;;19.60;99.90;;;;;;12507180;28;19932;-45
2023/07/29 18:51:13;;;;;;;;;;;19.40;99.90;;;;;;12516451;28;19921;-45
2023/07/29 18:57:16;;;;;;;;;;;19.30;99.90;;;;;;12508361;28;19970;-44
2023/07/29 19:03:19;;;;;;;;;;;19.30;99.90;;;;;;12512149;28;19920;-44
2023/07/29 19:09:25;;;;;;;;;;;19.20;99.90;;;;;;12515458;28;19920;-44
2023/07/29 19:15:27;;;;;;;;;;;19.10;99.90;;;;;;12508797;28;19924;-44
2023/07/29 19:21:30;;;;;;;;;;;18.80;99.90;;;;;;12512860;28;19971;-45
2023/07/29 19:27:33;;;;;;;;;;;18.80;99.90;;;;;;12511389;28;19925;-45
2023/07/29 19:33:40;;;;;;;;;;;18.60;99.90;;;;;;12502015;28;19921;-44
2023/07/29 19:39:45;;;;;;;;;;;18.60;99.90;;;;;;12523976;28;20008;-44
2023/07/29 19:45:48;;;;;;;;;;;18.60;99.90;;;;;;12509289;28;19981;-45
2023/07/29 19:52:12;;;;;;;;;;;18.50;99.90;;;;;;12508138;28;20019;-45
2023/07/29 19:58:14;;;;;;;;;;;18.40;99.90;;;;;;12500764;28;19920;-45
2023/07/29 20:04:17;;;;;;;;;;;18.30;99.90;;;;;;12502207;28;20415;-45
2023/07/29 20:10:21;;;;;;;;;;;18.10;99.90;;;;;;12511048;28;20498;-45
2023/07/29 20:16:23;;;;;;;;;;;18.20;99.90;;;;;;12521448;28;19973;-45
2023/07/29 20:22:26;;;;;;;;;;;18.20;99.90;;;;;;12502827;28;19921;-45
2023/07/29 20:28:29;;;;;;;;;;;18.00;99.90;;;;;;12511291;28;19921;-44
2023/07/29 20:34:32;;;;;;;;;;;18.00;99.90;;;;;;12511906;28;19994;-45
2023/07/29 20:40:35;;;;;;;;;;;17.90;99.90;;;;;;12520508;28;19928;-45
2023/07/29 20:46:39;;;;;;;;;;;18.00;99.90;;;;;;12525989;28;20305;-45
2023/07/29 20:52:43;;;;;;;;;;;17.80;99.90;;;;;;12527093;28;20284;-45
2023/07/29 20:58:46;;;;;;;;;;;17.80;99.90;;;;;;12507982;28;19928;-45
2023/07/29 21:04:49;;;;;;;;;;;17.80;99.90;;;;;;12511033;28;19965;-45
2023/07/29 21:10:52;;;;;;;;;;;17.80;99.90;;;;;;12501946;28;19931;-45
2023/07/29 21:16:55;;;;;;;;;;;17.80;99.90;;;;;;12511599;28;20322;-45
2023/07/29 21:22:57;;;;;;;;;;;17.80;99.90;;;;;;12503262;28;20362;-45
2023/07/29 21:29:00;;;;;;;;;;;17.80;99.90;;;;;;12497119;28;19921;-44
2023/07/29 21:35:03;;;;;;;;;;;17.80;99.90;;;;;;12518010;28;19943;-45
2023/07/29 21:41:06;;;;;;;;;;;17.70;99.90;;;;;;12505050;28;19979;-45
2023/07/29 21:47:09;;;;;;;;;;;17.70;99.90;;;;;;12511183;28;19921;-45
2023/07/29 21:53:13;;;;;;;;;;;17.70;99.90;;;;;;12525203;28;19924;-44
2023/07/29 21:59:15;;;;;;;;;;;17.70;99.90;;;;;;12500116;28;19921;-44
2023/07/29 22:05:18;;;;;;;;;;;17.70;99.90;;;;;;12527233;28;20384;-45
2023/07/29 22:11:21;;;;;;;;;;;17.70;99.90;;;;;;12529627;28;20309;-45
2023/07/29 22:17:24;;;;;;;;;;;17.60;99.90;;;;;;12529993;28;19920;-45
2023/07/29 22:23:27;;;;;;;;;;;17.70;99.90;;;;;;12521197;28;19928;-45
2023/07/29 22:29:29;;;;;;;;;;;17.70;99.90;;;;;;12516959;28;19921;-45
2023/07/29 22:35:32;;;;;;;;;;;17.60;99.90;;;;;;12511869;28;19929;-44
2023/07/29 22:41:36;;;;;;;;;;;17.60;99.90;;;;;;12523730;28;19929;-45
2023/07/29 22:47:39;;;;;;;;;;;17.70;99.90;;;;;;12519591;28;19921;-45
2023/07/29 22:53:41;;;;;;;;;;;17.70;99.90;;;;;;12517437;28;20050;-45
2023/07/29 22:59:43;;;;;;;;;;;17.70;99.90;;;;;;12521907;28;19921;-45
2023/07/29 23:05:46;;;;;;;;;;;17.80;99.90;;;;;;12516322;28;19970;-44
2023/07/29 23:11:48;;;;;;;;;;;17.80;99.90;;;;;;12500570;28;19920;-45
2023/07/29 23:17:51;;;;;;;;;;;17.70;99.90;;;;;;12522280;28;19974;-45
2023/07/29 23:23:53;;;;;;;;;;;17.70;99.90;;;;;;12511332;28;20140;-45
2023/07/29 23:29:56;;;;;;;;;;;17.70;99.90;;;;;;12515183;28;19932;-44
2023/07/29 23:36:00;;;;;;;;;;;17.70;99.90;;;;;;12512341;28;20282;-44
2023/07/29 23:42:04;;;;;;;;;;;17.70;99.90;;;;;;12503020;28;19921;-45
2023/07/29 23:48:06;;;;;;;;;;;17.60;99.90;;;;;;12508496;28;19921;-45
2023/07/29 23:54:09;;;;;;;;;;;17.50;99.90;;;;;;12514005;28;20365;-45
